Time;durP1;ratioP1;P1;durP2;ratioP2;P2;SDS_P1;SDS_P2;PMS_P1;PMS_P2;Temp;Humidity;BMP_temperature;BMP_pressure;BME280_temperature;BME280_humidity;BME280_pressure;Samples;Min_cycle;Max_cycle;Signal;HPM_P1;HPM_P2
2022/07/03 00:01:28;;;;;;;3.50;3.27;;;;;;;;;;5039568;28;20456;-74
2022/07/03 00:03:54;;;;;;;4.10;3.80;;;;;;;;;;5040563;28;20517;-74
2022/07/03 00:06:21;;;;;;;4.10;3.70;;;;;;;;;;5040586;28;20484;-74
2022/07/03 00:08:47;;;;;;;3.57;3.27;;;;;;;;;;5038635;28;20474;-74
2022/07/03 00:11:13;;;;;;;3.83;3.53;;;;;;;;;;5040862;28;20453;-74
2022/07/03 00:13:41;;;;;;;4.63;3.53;;;;;;;;;;5055268;22;20458;-75
2022/07/03 00:16:07;;;;;;;4.73;4.00;;;;;;;;;;5058258;28;20434;-74
2022/07/03 00:18:34;;;;;;;4.33;3.93;;;;;;;;;;5060354;28;20421;-75
2022/07/03 00:21:01;;;;;;;4.80;4.30;;;;;;;;;;5060502;28;20426;-75
2022/07/03 00:23:29;;;;;;;4.23;3.90;;;;;;;;;;5060239;28;20433;-75
2022/07/03 00:25:56;;;;;;;7.03;3.80;;;;;;;;;;5057213;28;20446;-74
2022/07/03 00:28:23;;;;;;;3.87;3.53;;;;;;;;;;5059785;28;20459;-75
2022/07/03 00:30:52;;;;;;;3.70;3.40;;;;;;;;;;5056719;28;20486;-75
2022/07/03 00:33:19;;;;;;;4.13;3.83;;;;;;;;;;5060505;28;20451;-75
2022/07/03 00:35:47;;;;;;;3.90;3.63;;;;;;;;;;5059191;28;20813;-74
2022/07/03 00:38:14;;;;;;;4.87;3.93;;;;;;;;;;5058706;28;20440;-75
2022/07/03 00:40:40;;;;;;;4.10;3.80;;;;;;;;;;5057221;28;20438;-75
2022/07/03 00:43:07;;;;;;;4.37;3.70;;;;;;;;;;5059346;28;20450;-75
2022/07/03 00:45:35;;;;;;;4.47;4.17;;;;;;;;;;5059051;28;20480;-75
2022/07/03 00:48:03;;;;;;;3.43;3.13;;;;;;;;;;5059529;28;20763;-74
2022/07/03 00:50:34;;;;;;;3.27;3.07;;;;;;;;;;5057168;28;20442;-74
2022/07/03 00:53:01;;;;;;;3.63;3.43;;;;;;;;;;5058823;28;20433;-75
2022/07/03 00:55:28;;;;;;;4.37;3.27;;;;;;;;;;5056293;28;20839;-75
2022/07/03 00:57:56;;;;;;;5.70;3.60;;;;;;;;;;5059187;28;20454;-75
2022/07/03 01:00:22;;;;;;;3.30;3.00;;;;;;;;;;5058038;28;20467;-74
2022/07/03 01:03:02;;;;;;;4.87;3.80;;;;;;;;;;5057570;28;20447;-75
2022/07/03 01:05:33;;;;;;;4.10;3.73;;;;;;;;;;5057674;28;20474;-75
2022/07/03 01:08:05;;;;;;;3.97;3.67;;;;;;;;;;5059731;28;20456;-75
2022/07/03 01:10:36;;;;;;;5.27;3.17;;;;;;;;;;5057708;28;21017;-75
2022/07/03 01:13:07;;;;;;;4.50;4.10;;;;;;;;;;5059605;28;20512;-74
2022/07/03 01:15:43;;;;;;;3.80;3.50;;;;;;;;;;5058247;28;20513;-75
2022/07/03 01:18:23;;;;;;;6.30;4.27;;;;;;;;;;5059386;28;20443;-75
2022/07/03 01:20:53;;;;;;;5.23;3.80;;;;;;;;;;5057727;28;20478;-74
2022/07/03 01:23:23;;;;;;;4.03;3.73;;;;;;;;;;5058251;28;20491;-74
2022/07/03 01:25:52;;;;;;;4.47;4.03;;;;;;;;;;5056500;28;20501;-74
2022/07/03 01:28:21;;;;;;;6.23;3.80;;;;;;;;;;5058757;28;20417;-74
2022/07/03 01:30:48;;;;;;;3.83;3.53;;;;;;;;;;5057117;28;20467;-75
2022/07/03 01:33:16;;;;;;;4.17;3.87;;;;;;;;;;5058583;28;20467;-74
2022/07/03 01:35:47;;;;;;;3.50;3.20;;;;;;;;;;5058867;28;20474;-75
2022/07/03 01:38:14;;;;;;;5.03;3.80;;;;;;;;;;5057358;28;20463;-75
2022/07/03 01:40:41;;;;;;;4.40;3.97;;;;;;;;;;5056607;28;20486;-74
2022/07/03 01:43:11;;;;;;;4.00;3.60;;;;;;;;;;5058155;28;20424;-75
2022/07/03 01:45:39;;;;;;;3.80;3.50;;;;;;;;;;5057881;28;20471;-74
2022/07/03 01:48:06;;;;;;;4.00;3.70;;;;;;;;;;5056378;28;20438;-75
2022/07/03 01:50:33;;;;;;;3.50;3.30;;;;;;;;;;5058039;28;20450;-74
2022/07/03 01:53:01;;;;;;;4.20;3.90;;;;;;;;;;5058933;28;20448;-75
2022/07/03 01:55:30;;;;;;;4.37;3.97;;;;;;;;;;5055926;28;20473;-75
2022/07/03 01:57:56;;;;;;;4.30;4.00;;;;;;;;;;5058597;28;20455;-74
2022/07/03 02:00:24;;;;;;;4.30;4.00;;;;;;;;;;5058335;28;20470;-75
2022/07/03 02:02:54;;;;;;;4.70;4.23;;;;;;;;;;5057564;28;20466;-75
2022/07/03 02:05:27;;;;;;;5.93;3.97;;;;;;;;;;5056207;28;20415;-74
2022/07/03 02:07:59;;;;;;;4.47;4.07;;;;;;;;;;5058137;28;20432;-74
2022/07/03 02:10:28;;;;;;;4.97;4.57;;;;;;;;;;5056758;28;20482;-75
2022/07/03 02:13:00;;;;;;;9.90;4.93;;;;;;;;;;5058310;28;20440;-74
2022/07/03 02:15:30;;;;;;;5.33;4.40;;;;;;;;;;5058338;28;20470;-75
2022/07/03 02:17:57;;;;;;;5.60;4.50;;;;;;;;;;5056493;28;20468;-74
2022/07/03 02:20:25;;;;;;;4.80;4.40;;;;;;;;;;5057725;28;20474;-75
2022/07/03 02:22:53;;;;;;;5.20;4.40;;;;;;;;;;5058657;28;20458;-74
2022/07/03 02:25:22;;;;;;;4.20;3.90;;;;;;;;;;5055954;28;20478;-75
2022/07/03 02:27:50;;;;;;;4.37;4.07;;;;;;;;;;5059424;28;20451;-74
2022/07/03 02:30:17;;;;;;;5.23;4.73;;;;;;;;;;5057896;28;20489;-75
2022/07/03 02:32:45;;;;;;;4.83;4.50;;;;;;;;;;5055026;28;20475;-74
2022/07/03 02:35:12;;;;;;;5.87;4.80;;;;;;;;;;5057460;28;20464;-75
2022/07/03 02:37:40;;;;;;;4.83;4.40;;;;;;;;;;5058891;28;20443;-75
2022/07/03 02:40:08;;;;;;;6.20;4.50;;;;;;;;;;5056061;28;20467;-75
2022/07/03 02:42:38;;;;;;;5.17;4.67;;;;;;;;;;5057272;28;20422;-75
2022/07/03 02:45:06;;;;;;;4.97;4.57;;;;;;;;;;5056906;28;20471;-74
2022/07/03 02:47:36;;;;;;;4.73;4.40;;;;;;;;;;5057497;28;20463;-75
2022/07/03 02:50:08;;;;;;;4.90;4.60;;;;;;;;;;5057220;28;20467;-74
2022/07/03 02:52:47;;;;;;;4.70;4.40;;;;;;;;;;5055924;28;20459;-74
2022/07/03 02:55:23;;;;;;;8.73;4.60;;;;;;;;;;5054838;28;20479;-75
2022/07/03 02:57:56;;;;;;;5.37;4.90;;;;;;;;;;5057409;28;20925;-74
2022/07/03 03:00:23;;;;;;;5.00;4.60;;;;;;;;;;5057936;28;20490;-75
2022/07/03 03:02:54;;;;;;;5.60;5.10;;;;;;;;;;5059102;28;20961;-74
2022/07/03 03:05:30;;;;;;;4.93;4.60;;;;;;;;;;5060259;28;21005;-75
2022/07/03 03:08:02;;;;;;;4.60;4.30;;;;;;;;;;5060523;28;20442;-75
2022/07/03 03:10:29;;;;;;;4.80;4.40;;;;;;;;;;5059766;28;20467;-74
2022/07/03 03:12:59;;;;;;;5.33;4.80;;;;;;;;;;5058629;28;20843;-75
2022/07/03 03:15:26;;;;;;;6.40;5.10;;;;;;;;;;5060197;28;21040;-74
2022/07/03 03:17:57;;;;;;;5.27;4.87;;;;;;;;;;5061874;28;20486;-74
2022/07/03 03:20:27;;;;;;;5.00;4.47;;;;;;;;;;5061593;28;20467;-74
2022/07/03 03:23:00;;;;;;;8.10;5.17;;;;;;;;;;5059269;28;20443;-74
2022/07/03 03:25:26;;;;;;;5.87;5.00;;;;;;;;;;5060972;28;20541;-75
2022/07/03 03:27:53;;;;;;;8.80;5.00;;;;;;;;;;5060840;28;20820;-75
2022/07/03 03:30:20;;;;;;;7.50;5.03;;;;;;;;;;5061431;28;20558;-74
2022/07/03 03:32:46;;;;;;;6.73;5.37;;;;;;;;;;5061738;28;20454;-75
2022/07/03 03:35:12;;;;;;;5.80;5.17;;;;;;;;;;5061052;28;20463;-75
2022/07/03 03:37:39;;;;;;;6.57;5.83;;;;;;;;;;5060023;28;20452;-75
2022/07/03 03:40:07;;;;;;;6.67;4.90;;;;;;;;;;5060510;28;20466;-74
2022/07/03 03:42:33;;;;;;;5.27;4.40;;;;;;;;;;5059870;28;20454;-74
2022/07/03 03:45:00;;;;;;;5.20;4.70;;;;;;;;;;5057862;28;20950;-74
2022/07/03 03:47:26;;;;;;;6.13;5.63;;;;;;;;;;5060160;28;20423;-74
2022/07/03 03:49:53;;;;;;;6.13;5.37;;;;;;;;;;5061130;28;20221;-74
2022/07/03 03:52:19;;;;;;;5.63;5.17;;;;;;;;;;5061407;28;20451;-75
2022/07/03 03:54:45;;;;;;;5.30;4.80;;;;;;;;;;5061264;28;20478;-74
2022/07/03 03:57:19;;;;;;;6.37;5.87;;;;;;;;;;5059046;28;20469;-74
2022/07/03 03:59:46;;;;;;;5.85;5.45;;;;;;;;;;5058547;28;20427;-75
2022/07/03 04:02:13;;;;;;;9.90;6.05;;;;;;;;;;5059952;28;20438;-74
2022/07/03 04:04:39;;;;;;;6.70;6.10;;;;;;;;;;5058370;28;20833;-74
2022/07/03 04:07:05;;;;;;;5.55;5.05;;;;;;;;;;5059008;28;20904;-75
2022/07/03 04:09:32;;;;;;;6.13;5.40;;;;;;;;;;5059351;28;20490;-74
2022/07/03 04:11:58;;;;;;;6.75;6.15;;;;;;;;;;5058227;28;20943;-75
2022/07/03 04:14:26;;;;;;;8.50;6.22;;;;;;;;;;5058345;28;20412;-74
2022/07/03 04:16:53;;;;;;;7.20;6.60;;;;;;;;;;5058373;28;20431;-74
2022/07/03 04:19:19;;;;;;;7.47;6.40;;;;;;;;;;5056674;28;20438;-74
2022/07/03 04:21:45;;;;;;;6.00;5.50;;;;;;;;;;5056769;28;20435;-74
2022/07/03 04:24:11;;;;;;;5.47;5.03;;;;;;;;;;5058653;28;20413;-74
2022/07/03 04:26:38;;;;;;;6.30;5.70;;;;;;;;;;5057866;28;20425;-74
2022/07/03 04:29:04;;;;;;;6.70;6.10;;;;;;;;;;5057892;28;20421;-75
2022/07/03 04:31:32;;;;;;;7.10;6.50;;;;;;;;;;5058643;28;20423;-74
2022/07/03 04:33:58;;;;;;;7.28;6.20;;;;;;;;;;5058680;28;20459;-74
2022/07/03 04:36:24;;;;;;;6.22;5.70;;;;;;;;;;5057630;28;20404;-74
2022/07/03 04:38:51;;;;;;;5.60;5.10;;;;;;;;;;5059412;28;20416;-74
2022/07/03 04:41:17;;;;;;;6.68;5.97;;;;;;;;;;5059216;28;20761;-75
2022/07/03 04:43:44;;;;;;;7.10;6.40;;;;;;;;;;5054811;28;20502;-75
2022/07/03 04:46:10;;;;;;;7.30;6.70;;;;;;;;;;5056072;28;20433;-75
2022/07/03 04:48:38;;;;;;;7.30;6.68;;;;;;;;;;5058175;28;20411;-74
2022/07/03 04:51:04;;;;;;;7.90;7.30;;;;;;;;;;5057807;28;20425;-74
2022/07/03 04:53:30;;;;;;;7.65;6.95;;;;;;;;;;5058503;28;20424;-75
2022/07/03 04:55:57;;;;;;;6.45;5.95;;;;;;;;;;5057588;28;20416;-75
2022/07/03 04:58:23;;;;;;;7.30;6.60;;;;;;;;;;5054450;28;20437;-74
2022/07/03 05:00:49;;;;;;;7.05;6.55;;;;;;;;;;5057940;28;20445;-75
2022/07/03 05:03:16;;;;;;;7.20;6.60;;;;;;;;;;5058822;28;20416;-74
2022/07/03 05:05:44;;;;;;;8.60;7.90;;;;;;;;;;5057689;28;20426;-74
2022/07/03 05:08:10;;;;;;;7.90;7.20;;;;;;;;;;5058566;28;20417;-74
2022/07/03 05:10:36;;;;;;;9.23;7.70;;;;;;;;;;5057828;28;20632;-74
2022/07/03 05:13:03;;;;;;;8.63;7.82;;;;;;;;;;5055867;28;20456;-74
2022/07/03 05:15:29;;;;;;;9.45;8.45;;;;;;;;;;5056004;28;20420;-74
2022/07/03 05:17:55;;;;;;;8.50;7.80;;;;;;;;;;5057956;28;20419;-75
2022/07/03 05:20:24;;;;;;;9.40;8.40;;;;;;;;;;5057526;28;20418;-75
2022/07/03 05:22:52;;;;;;;8.68;7.97;;;;;;;;;;5057941;28;20434;-75
2022/07/03 05:25:19;;;;;;;9.00;8.10;;;;;;;;;;5057042;28;20768;-74
2022/07/03 05:27:45;;;;;;;10.00;9.00;;;;;;;;;;5054556;28;20431;-75
2022/07/03 05:30:12;;;;;;;9.77;8.98;;;;;;;;;;5053896;28;20436;-74
2022/07/03 05:32:38;;;;;;;9.50;8.55;;;;;;;;;;5058786;28;20409;-74
2022/07/03 05:35:05;;;;;;;8.20;7.40;;;;;;;;;;5055824;28;20414;-75
2022/07/03 05:37:32;;;;;;;8.07;7.28;;;;;;;;;;5058520;28;20426;-75
2022/07/03 05:39:59;;;;;;;9.13;8.02;;;;;;;;;;5057153;28;20425;-75
2022/07/03 05:42:26;;;;;;;8.73;7.93;;;;;;;;;;5056014;28;20437;-74
2022/07/03 05:44:52;;;;;;;7.80;7.00;;;;;;;;;;5055377;28;20941;-74
2022/07/03 05:47:18;;;;;;;7.80;7.20;;;;;;;;;;5057181;28;20907;-74
2022/07/03 05:49:45;;;;;;;8.40;7.50;;;;;;;;;;5058156;28;20860;-75
2022/07/03 05:52:11;;;;;;;8.30;7.13;;;;;;;;;;5057793;28;20420;-74
2022/07/03 05:54:37;;;;;;;8.40;7.70;;;;;;;;;;5056494;28;20654;-74
2022/07/03 05:57:05;;;;;;;7.70;7.00;;;;;;;;;;5055298;28;20432;-75
2022/07/03 05:59:32;;;;;;;8.45;7.75;;;;;;;;;;5057119;28;20424;-74
2022/07/03 06:01:58;;;;;;;7.70;7.00;;;;;;;;;;5054772;28;20444;-75
2022/07/03 06:04:24;;;;;;;8.70;7.90;;;;;;;;;;5055987;28;20424;-74
2022/07/03 06:06:51;;;;;;;7.82;7.18;;;;;;;;;;5057724;28;20438;-74
2022/07/03 06:09:17;;;;;;;8.38;6.70;;;;;;;;;;5056786;28;20785;-75
2022/07/03 06:11:43;;;;;;;8.20;6.82;;;;;;;;;;5055969;28;20448;-75
2022/07/03 06:14:11;;;;;;;10.10;6.90;;;;;;;;;;5071730;22;20462;-73
2022/07/03 06:16:37;;;;;;;6.80;6.25;;;;;;;;;;5057600;28;20926;-73
2022/07/03 06:19:04;;;;;;;10.00;7.50;;;;;;;;;;5057858;28;20415;-73
2022/07/03 06:21:30;;;;;;;9.47;7.83;;;;;;;;;;5058674;28;20420;-73
2022/07/03 06:23:56;;;;;;;8.70;7.90;;;;;;;;;;5057839;28;20895;-74
2022/07/03 06:26:23;;;;;;;7.55;6.85;;;;;;;;;;5057372;28;21019;-73
2022/07/03 06:28:49;;;;;;;7.10;6.50;;;;;;;;;;5057737;28;20421;-73
2022/07/03 06:31:17;;;;;;;7.68;6.40;;;;;;;;;;5056698;28;20429;-73
2022/07/03 06:33:43;;;;;;;7.18;6.47;;;;;;;;;;5055591;28;20425;-73
2022/07/03 06:36:09;;;;;;;6.05;5.65;;;;;;;;;;5056460;28;20412;-73
2022/07/03 06:38:35;;;;;;;6.43;5.10;;;;;;;;;;5059505;28;20767;-73
2022/07/03 06:41:02;;;;;;;5.45;4.95;;;;;;;;;;5061928;28;20418;-74
2022/07/03 06:43:28;;;;;;;5.38;4.88;;;;;;;;;;5058229;28;20438;-75
2022/07/03 06:45:54;;;;;;;5.17;4.67;;;;;;;;;;5059139;28;20429;-74
2022/07/03 06:48:22;;;;;;;5.40;4.90;;;;;;;;;;5061123;28;20807;-74
2022/07/03 06:50:49;;;;;;;4.90;4.50;;;;;;;;;;5060913;28;20420;-74
2022/07/03 06:53:15;;;;;;;6.60;4.90;;;;;;;;;;5060609;28;20887;-74
2022/07/03 06:55:41;;;;;;;5.22;4.30;;;;;;;;;;5060262;28;20431;-74
2022/07/03 06:58:08;;;;;;;5.43;4.93;;;;;;;;;;5062326;28;20458;-73
2022/07/03 07:00:34;;;;;;;6.20;4.60;;;;;;;;;;5060806;28;20415;-74
2022/07/03 07:03:01;;;;;;;5.07;4.60;;;;;;;;;;5059234;28;20429;-74
2022/07/03 07:05:28;;;;;;;10.15;5.03;;;;;;;;;;5060769;28;20414;-74
2022/07/03 07:07:54;;;;;;;4.60;4.20;;;;;;;;;;5060823;28;20432;-74
2022/07/03 07:10:21;;;;;;;4.88;4.45;;;;;;;;;;5061175;28;20415;-74
2022/07/03 07:12:47;;;;;;;5.85;4.47;;;;;;;;;;5060732;28;20424;-74
2022/07/03 07:15:13;;;;;;;5.47;4.10;;;;;;;;;;5059661;28;20795;-74
2022/07/03 07:17:40;;;;;;;4.20;3.80;;;;;;;;;;5061355;28;20422;-74
2022/07/03 07:20:07;;;;;;;3.90;3.30;;;;;;;;;;5060578;28;20421;-74
2022/07/03 07:22:34;;;;;;;4.13;3.72;;;;;;;;;;5058713;28;20415;-74
2022/07/03 07:25:01;;;;;;;4.35;3.92;;;;;;;;;;5060510;28;20496;-74
2022/07/03 07:27:27;;;;;;;5.07;3.55;;;;;;;;;;5060800;28;20454;-74
2022/07/03 07:29:53;;;;;;;6.22;3.90;;;;;;;;;;5059179;28;20792;-74
2022/07/03 07:32:20;;;;;;;3.95;3.55;;;;;;;;;;5060582;28;20414;-74
2022/07/03 07:34:46;;;;;;;6.32;3.90;;;;;;;;;;5059138;28;20418;-74
2022/07/03 07:37:12;;;;;;;5.28;3.50;;;;;;;;;;5060472;28;20411;-74
2022/07/03 07:39:40;;;;;;;3.60;3.22;;;;;;;;;;5059410;28;20424;-74
2022/07/03 07:42:06;;;;;;;4.57;3.20;;;;;;;;;;5060522;28;20433;-74
2022/07/03 07:44:33;;;;;;;3.72;3.20;;;;;;;;;;5058296;28;20421;-74
2022/07/03 07:46:59;;;;;;;5.15;3.60;;;;;;;;;;5060702;28;20427;-74
2022/07/03 07:49:25;;;;;;;8.13;3.65;;;;;;;;;;5059862;28;20946;-75
2022/07/03 07:51:52;;;;;;;4.50;3.90;;;;;;;;;;5056561;28;20433;-74
2022/07/03 07:54:18;;;;;;;5.35;3.13;;;;;;;;;;5057926;28;20494;-74
2022/07/03 07:56:46;;;;;;;6.00;3.13;;;;;;;;;;5059290;28;20434;-74
2022/07/03 07:59:12;;;;;;;4.10;3.50;;;;;;;;;;5058834;28;20428;-74
2022/07/03 08:07:06;;;;;;;3.70;3.40;;;;;;;;;;5058297;28;22915;-74
2022/07/03 08:09:32;;;;;;;3.05;2.75;;;;;;;;;;5055555;28;20921;-74
2022/07/03 08:12:00;;;;;;;2.83;2.42;;;;;;;;;;5058070;28;20429;-74
2022/07/03 08:14:26;;;;;;;4.50;2.93;;;;;;;;;;5057608;28;20423;-74
2022/07/03 08:16:52;;;;;;;5.10;2.90;;;;;;;;;;5057578;28;20438;-74
2022/07/03 08:19:19;;;;;;;4.00;3.03;;;;;;;;;;5059121;28;20908;-74
2022/07/03 08:21:45;;;;;;;5.07;2.77;;;;;;;;;;5058604;28;20431;-74
2022/07/03 08:24:12;;;;;;;3.10;2.30;;;;;;;;;;5057997;28;20417;-74
2022/07/03 08:26:39;;;;;;;4.20;2.40;;;;;;;;;;5053555;28;20732;-74
2022/07/03 08:29:06;;;;;;;3.40;2.60;;;;;;;;;;5052798;28;20662;-74
2022/07/03 08:31:33;;;;;;;3.00;1.80;;;;;;;;;;5056178;28;20502;-76
2022/07/03 08:33:59;;;;;;;2.37;2.17;;;;;;;;;;5058886;28;20479;-75
2022/07/03 08:36:25;;;;;;;4.47;2.63;;;;;;;;;;5059450;28;20448;-74
2022/07/03 08:38:52;;;;;;;4.77;2.33;;;;;;;;;;5059278;28;20478;-74
2022/07/03 08:41:19;;;;;;;2.90;2.00;;;;;;;;;;5059900;28;20834;-75
2022/07/03 08:43:46;;;;;;;4.60;1.63;;;;;;;;;;5058381;28;20468;-75
2022/07/03 08:46:15;;;;;;;3.93;1.30;;;;;;;;;;5058806;28;20980;-75
2022/07/03 08:48:42;;;;;;;2.73;1.90;;;;;;;;;;5056828;28;20459;-75
2022/07/03 08:51:09;;;;;;;1.73;1.23;;;;;;;;;;5058885;28;20482;-74
2022/07/03 08:53:35;;;;;;;5.27;1.47;;;;;;;;;;5059013;28;20834;-75
2022/07/03 08:56:02;;;;;;;4.13;1.70;;;;;;;;;;5055166;28;20483;-74
2022/07/03 08:58:31;;;;;;;2.27;1.70;;;;;;;;;;5060701;28;20443;-75
2022/07/03 09:00:57;;;;;;;2.50;1.40;;;;;;;;;;5056932;28;20493;-75
2022/07/03 09:03:25;;;;;;;2.27;1.23;;;;;;;;;;5059584;28;20439;-75
2022/07/03 09:05:52;;;;;;;1.23;1.10;;;;;;;;;;5056750;28;20466;-75
2022/07/03 09:08:19;;;;;;;3.13;1.30;;;;;;;;;;5059406;28;20487;-75
2022/07/03 09:10:45;;;;;;;1.87;1.50;;;;;;;;;;5056246;28;20479;-75
2022/07/03 09:13:12;;;;;;;1.67;1.40;;;;;;;;;;5058480;28;20456;-74
2022/07/03 09:15:38;;;;;;;1.90;1.13;;;;;;;;;;5054356;28;20837;-75
2022/07/03 09:18:05;;;;;;;4.03;1.43;;;;;;;;;;5058414;28;20888;-75
2022/07/03 09:20:34;;;;;;;1.53;1.13;;;;;;;;;;5057353;28;20471;-74
2022/07/03 09:23:10;;;;;;;1.27;1.17;;;;;;;;;;5058444;28;20480;-75
2022/07/03 09:25:50;;;;;;;3.90;2.00;;;;;;;;;;5055224;28;20482;-75
2022/07/03 09:28:16;;;;;;;2.57;1.40;;;;;;;;;;5059412;28;20844;-74
2022/07/03 09:30:56;;;;;;;2.10;1.50;;;;;;;;;;5056449;28;20471;-75
2022/07/03 09:33:22;;;;;;;2.03;1.87;;;;;;;;;;5057552;28;20459;-74
2022/07/03 09:35:53;;;;;;;4.00;1.60;;;;;;;;;;5058641;28;20486;-74
2022/07/03 09:38:19;;;;;;;2.83;1.80;;;;;;;;;;5059022;28;20966;-75
2022/07/03 09:40:49;;;;;;;4.37;1.90;;;;;;;;;;5058777;28;20475;-75
2022/07/03 09:43:16;;;;;;;2.17;1.93;;;;;;;;;;5059584;28;20466;-75
2022/07/03 09:45:52;;;;;;;3.60;2.20;;;;;;;;;;5058932;28;20483;-75
2022/07/03 09:48:25;;;;;;;2.13;1.70;;;;;;;;;;5059763;28;20584;-75
2022/07/03 09:51:08;;;;;;;2.23;1.60;;;;;;;;;;5056321;28;20489;-75
2022/07/03 09:53:43;;;;;;;1.43;1.33;;;;;;;;;;5058845;28;20456;-75
2022/07/03 09:56:10;;;;;;;1.93;1.60;;;;;;;;;;5057920;28;20474;-74
2022/07/03 09:58:36;;;;;;;5.07;1.70;;;;;;;;;;5054473;28;20481;-75
2022/07/03 10:01:15;;;;;;;2.00;1.67;;;;;;;;;;5056332;28;20432;-75
2022/07/03 10:03:42;;;;;;;2.37;1.50;;;;;;;;;;5059380;28;20209;-74
2022/07/03 10:06:09;;;;;;;2.50;1.77;;;;;;;;;;5058092;28;20454;-74
2022/07/03 10:08:36;;;;;;;1.77;1.23;;;;;;;;;;5058940;28;20505;-74
2022/07/03 10:11:02;;;;;;;;;;;;;;;;;;5058280;28;20325;-74
2022/07/03 10:13:29;;;;;;;;;;;;;;;;;;5057676;28;19927;-74
2022/07/03 10:15:56;;;;;;;;;;;;;;;;;;5057223;28;19925;-74
2022/07/03 10:18:22;;;;;;;;;;;;;;;;;;5057880;28;19931;-74
2022/07/03 10:20:48;;;;;;;;;;;;;;;;;;5056861;28;19921;-74
2022/07/03 10:23:15;;;;;;;;;;;;;;;;;;5058886;28;20007;-74
2022/07/03 10:25:41;;;;;;;;;;;;;;;;;;5058203;28;19925;-74
2022/07/03 10:28:07;;;;;;;;;;;;;;;;;;5058205;28;19921;-75
2022/07/03 10:30:33;;;;;;;;;;;;;;;;;;5056572;28;19924;-74
2022/07/03 10:32:59;;;;;;;;;;;;;;;;;;5057916;28;19932;-75
2022/07/03 10:35:25;;;;;;;;;;;;;;;;;;5055741;28;20360;-75
2022/07/03 10:37:51;;;;;;;;;;;;;;;;;;5059536;28;20414;-74
2022/07/03 10:45:45;;;;;;;;;;;;;;;;;;5057503;28;19920;-75
2022/07/03 10:48:12;;;;;;;;;;;;;;;;;;5057659;28;19925;-74
2022/07/03 10:50:38;;;;;;;;;;;;;;;;;;5057564;28;19928;-74
2022/07/03 10:53:04;;;;;;;;;;;;;;;;;;5057814;28;19921;-75
2022/07/03 10:55:30;;;;;;;;;;;;;;;;;;5056755;28;19928;-74
2022/07/03 10:57:56;;;;;;;;;;;;;;;;;;5058097;28;19928;-74
2022/07/03 11:00:22;;;;;;;;;;;;;;;;;;5056252;28;19921;-74
2022/07/03 11:02:48;;;;;;;;;;;;;;;;;;5056721;28;19932;-74
2022/07/03 11:05:17;;;;;;;;;;;;;;;;;;5057420;28;19920;-75
2022/07/03 11:07:43;;;;;;;;;;;;;;;;;;5059041;28;20007;-75
2022/07/03 11:10:09;;;;;;;;;;;;;;;;;;5057291;28;19935;-74
2022/07/03 11:12:36;;;;;;;;;;;;;;;;;;5053202;28;20383;-75
2022/07/03 11:15:02;;;;;;;;;;;;;;;;;;5056750;28;19943;-74
2022/07/03 11:17:28;;;;;;;;;;;;;;;;;;5058949;28;19924;-75
2022/07/03 11:22:38;;;;;;;;;;;;;;;;;;5059112;28;20009;-74
2022/07/03 11:25:04;;;;;;;;;;;;;;;;;;5058814;28;19924;-74
2022/07/03 11:27:30;;;;;;;;;;;;;;;;;;5056947;28;19932;-74
2022/07/03 11:29:56;;;;;;;;;;;;;;;;;;5059208;28;19920;-74
2022/07/03 11:32:22;;;;;;;;;;;;;;;;;;5057578;28;19931;-75
2022/07/03 11:34:48;;;;;;;;;;;;;;;;;;5061765;28;20296;-74
2022/07/03 11:37:15;;;;;;;;;;;;;;;;;;5061577;28;19921;-74
2022/07/03 11:39:41;;;;;;;;;;;;;;;;;;5061375;28;19925;-74
2022/07/03 11:42:07;;;;;;;;;;;;;;;;;;5060459;28;19928;-74
2022/07/03 11:44:33;;;;;;;;;;;;;;;;;;5061015;28;19924;-74
2022/07/03 11:47:00;;;;;;;;;;;;;;;;;;5060185;28;19925;-74
2022/07/03 11:49:27;;;;;;;;;;;;;;;;;;5058899;28;20034;-74
2022/07/03 11:51:53;;;;;;;;;;;;;;;;;;5060942;28;19970;-74
2022/07/03 11:54:19;;;;;;;;;;;;;;;;;;5059338;28;19920;-74
2022/07/03 11:56:45;;;;;;;;;;;;;;;;;;5056427;28;19927;-74
2022/07/03 11:59:11;;;;;;;;;;;;;;;;;;5058633;28;19924;-74
2022/07/03 12:01:37;;;;;;;;;;;;;;;;;;5060123;28;19928;-74
2022/07/03 12:04:04;;;;;;;;;;;;;;;;;;5059911;28;19920;-75
2022/07/03 12:06:30;;;;;;;;;;;;;;;;;;5060577;28;19932;-74
2022/07/03 12:08:56;;;;;;;;;;;;;;;;;;5060587;28;19921;-74
2022/07/03 12:11:22;;;;;;;;;;;;;;;;;;5049437;28;19920;-75
2022/07/03 12:13:50;;;;;;;;;;;;;;;;;;5056132;28;19929;-73
2022/07/03 12:16:16;;;;;;;;;;;;;;;;;;5072484;22;19920;-77
2022/07/03 12:18:42;;;;;;;;;;;;;;;;;;5056708;28;19924;-78
2022/07/03 12:21:08;;;;;;;;;;;;;;;;;;5062495;28;19924;-78
2022/07/03 12:23:35;;;;;;;;;;;;;;;;;;5060209;28;19935;-77
2022/07/03 12:26:01;;;;;;;;;;;;;;;;;;5058488;28;19924;-78
2022/07/03 12:28:27;;;;;;;;;;;;;;;;;;5056969;28;19925;-76
2022/07/03 12:30:53;;;;;;;;;;;;;;;;;;5060225;28;19920;-75
2022/07/03 12:33:19;;;;;;;;;;;;;;;;;;5060322;28;19931;-76
2022/07/03 12:35:45;;;;;;;;;;;;;;;;;;5056143;28;19921;-76
2022/07/03 12:38:11;;;;;;;;;;;;;;;;;;5059047;28;19920;-76
2022/07/03 12:40:38;;;;;;;;;;;;;;;;;;5061481;28;19925;-76
2022/07/03 12:43:04;;;;;;;;;;;;;;;;;;5058744;28;19921;-78
2022/07/03 12:45:30;;;;;;;;;;;;;;;;;;5060150;28;19931;-76
2022/07/03 12:47:56;;;;;;;;;;;;;;;;;;5060071;28;19920;-76
2022/07/03 12:50:22;;;;;;;;;;;;;;;;;;5060005;28;19971;-78
2022/07/03 12:52:48;;;;;;;;;;;;;;;;;;5057999;28;19927;-78
2022/07/03 12:55:14;;;;;;;;;;;;;;;;;;5059360;28;19920;-78
2022/07/03 13:00:25;;;;;;;;;;;;;;;;;;5060251;28;19915;-77
2022/07/03 13:02:51;;;;;;;;;;;;;;;;;;5060216;28;19925;-77
2022/07/03 13:05:17;;;;;;;;;;;;;;;;;;5059697;28;19928;-76
2022/07/03 13:07:43;;;;;;;;;;;;;;;;;;5059165;28;19929;-76
2022/07/03 13:10:09;;;;;;;;;;;;;;;;;;5055780;28;19931;-78
2022/07/03 13:12:35;;;;;;;;;;;;;;;;;;5056675;28;19931;-76
2022/07/03 13:15:01;;;;;;;;;;;;;;;;;;5058418;28;19920;-78
2022/07/03 13:17:27;;;;;;;;;;;;;;;;;;5059158;28;19927;-76
2022/07/03 13:19:54;;;;;;;;;;;;;;;;;;5059467;28;19924;-76
2022/07/03 13:22:20;;;;;;;;;;;;;;;;;;5058889;28;19920;-78
2022/07/03 13:24:46;;;;;;;;;;;;;;;;;;5053770;28;19927;-78
2022/07/03 13:27:12;;;;;;;;;;;;;;;;;;5055814;28;19924;-76
2022/07/03 13:29:38;;;;;;;;;;;;;;;;;;5060243;28;19943;-78
2022/07/03 13:32:04;;;;;;;;;;;;;;;;;;5058220;28;19920;-78
2022/07/03 13:34:30;;;;;;;;;;;;;;;;;;5059594;28;20000;-76
2022/07/03 13:36:57;;;;;;;;;;;;;;;;;;5058838;28;19920;-78
2022/07/03 13:39:23;;;;;;;;;;;;;;;;;;5059786;28;19928;-76
2022/07/03 13:41:49;;;;;;;;;;;;;;;;;;5053604;28;19924;-78
2022/07/03 13:44:16;;;;;;;;;;;;;;;;;;5058011;28;20381;-76
2022/07/03 13:46:42;;;;;;;;;;;;;;;;;;5058999;28;20011;-78
2022/07/03 13:49:08;;;;;;;;;;;;;;;;;;5058668;28;20359;-76
2022/07/03 13:51:34;;;;;;;;;;;;;;;;;;5059164;28;19947;-76
2022/07/03 13:54:00;;;;;;;;;;;;;;;;;;5057176;28;19921;-76
2022/07/03 13:56:26;;;;;;;;;;;;;;;;;;5057876;28;19921;-76
2022/07/03 13:58:53;;;;;;;;;;;;;;;;;;5056334;28;19934;-77
2022/07/03 14:01:19;;;;;;;;;;;;;;;;;;5059105;28;19920;-77
2022/07/03 14:03:46;;;;;;;;;;;;;;;;;;5058808;28;20377;-77
2022/07/03 14:06:12;;;;;;;;;;;;;;;;;;5058419;28;20304;-77
2022/07/03 14:08:38;;;;;;;;;;;;;;;;;;5057114;28;19929;-77
2022/07/03 14:11:04;;;;;;;;;;;;;;;;;;5056908;28;19928;-77
2022/07/03 14:13:30;;;;;;;;;;;;;;;;;;5056848;28;19927;-77
2022/07/03 14:15:56;;;;;;;;;;;;;;;;;;5055170;28;19932;-77
2022/07/03 14:18:22;;;;;;;;;;;;;;;;;;5057049;28;19921;-77
2022/07/03 14:20:49;;;;;;;;;;;;;;;;;;5059502;28;19929;-77
2022/07/03 14:23:15;;;;;;;;;;;;;;;;;;5057298;28;19924;-76
2022/07/03 14:25:41;;;;;;;;;;;;;;;;;;5058675;28;20012;-77
2022/07/03 14:33:35;;;;;;;;;;;;;;;;;;5055209;28;20115;-77
2022/07/03 14:36:01;;;;;;;;;;;;;;;;;;5057870;28;19920;-77
2022/07/03 14:38:27;;;;;;;;;;;;;;;;;;5058550;28;19931;-77
2022/07/03 14:40:53;;;;;;;;;;;;;;;;;;5059157;28;19924;-77
2022/07/03 14:43:19;;;;;;;;;;;;;;;;;;5057225;28;19927;-77
2022/07/03 14:45:45;;;;;;;;;;;;;;;;;;5058513;28;19925;-77
2022/07/03 14:48:12;;;;;;;;;;;;;;;;;;5055191;28;19928;-77
2022/07/03 14:50:38;;;;;;;;;;;;;;;;;;5039961;28;19942;-77
2022/07/03 14:53:04;;;;;;;;;;;;;;;;;;5056590;28;19925;-77
2022/07/03 14:55:31;;;;;;;;;;;;;;;;;;5057827;28;20415;-77
2022/07/03 14:57:57;;;;;;;;;;;;;;;;;;5056982;28;19927;-77
2022/07/03 15:00:23;;;;;;;;;;;;;;;;;;5059862;28;19935;-78
2022/07/03 15:02:49;;;;;;;;;;;;;;;;;;5061190;28;19936;-77
2022/07/03 15:05:15;;;;;;;;;;;;;;;;;;5060316;28;19931;-77
2022/07/03 15:07:41;;;;;;;;;;;;;;;;;;5055617;28;19921;-77
2022/07/03 15:10:07;;;;;;;;;;;;;;;;;;5057810;28;19928;-77
2022/07/03 15:12:34;;;;;;;;;;;;;;;;;;5060694;28;19920;-77
2022/07/03 15:15:00;;;;;;;;;;;;;;;;;;5058251;28;19925;-77
2022/07/03 15:17:27;;;;;;;;;;;;;;;;;;5061196;28;19924;-77
2022/07/03 15:19:53;;;;;;;;;;;;;;;;;;5061594;28;19928;-77
2022/07/03 15:22:19;;;;;;;;;;;;;;;;;;5060020;28;20019;-77
2022/07/03 15:24:45;;;;;;;;;;;;;;;;;;5057078;28;19927;-77
2022/07/03 15:27:11;;;;;;;;;;;;;;;;;;5056183;28;19925;-77
2022/07/03 15:29:37;;;;;;;;;;;;;;;;;;5059728;28;19920;-77
2022/07/03 15:32:03;;;;;;;;;;;;;;;;;;5056982;28;20379;-78
2022/07/03 15:34:30;;;;;;;;;;;;;;;;;;5061701;28;19981;-77
2022/07/03 15:36:56;;;;;;;;;;;;;;;;;;5060790;28;19920;-77
2022/07/03 15:39:22;;;;;;;;;;;;;;;;;;5060623;28;19921;-77
2022/07/03 15:41:48;;;;;;;;;;;;;;;;;;5062105;28;19935;-77
2022/07/03 15:44:14;;;;;;;;;;;;;;;;;;5051345;28;19932;-77